sensor_id;sensor_type;location;lat;lon;timestamp;temperature;humidity
3925;DHT22;1977;52.274;10.518;2023-06-22T00:02:01;23.10;99.90
3925;DHT22;1977;52.274;10.518;2023-06-22T00:04:27;23.20;99.90
3925;DHT22;1977;52.274;10.518;2023-06-22T00:06:54;23.20;99.90
3925;DHT22;1977;52.274;10.518;2023-06-22T00:09:22;23.20;99.90
3925;DHT22;1977;52.274;10.518;2023-06-22T00:11:49;23.20;99.90
3925;DHT22;1977;52.274;10.518;2023-06-22T00:14:16;23.10;99.90
3925;DHT22;1977;52.274;10.518;2023-06-22T00:16:42;23.10;99.90
3925;DHT22;1977;52.274;10.518;2023-06-22T00:19:10;23.00;99.90
3925;DHT22;1977;52.274;10.518;2023-06-22T00:21:37;22.90;99.90
3925;DHT22;1977;52.274;10.518;2023-06-22T00:24:05;23.00;99.90
3925;DHT22;1977;52.274;10.518;2023-06-22T00:26:33;22.90;99.90
3925;DHT22;1977;52.274;10.518;2023-06-22T00:29:00;23.00;99.90
3925;DHT22;1977;52.274;10.518;2023-06-22T00:31:27;23.10;99.90
3925;DHT22;1977;52.274;10.518;2023-06-22T00:33:54;23.20;99.90
3925;DHT22;1977;52.274;10.518;2023-06-22T00:36:20;23.30;99.90
3925;DHT22;1977;52.274;10.518;2023-06-22T00:38:50;23.40;99.90
3925;DHT22;1977;52.274;10.518;2023-06-22T00:41:17;23.40;99.90
3925;DHT22;1977;52.274;10.518;2023-06-22T00:43:45;23.40;99.90
3925;DHT22;1977;52.274;10.518;2023-06-22T00:46:12;23.30;99.90
3925;DHT22;1977;52.274;10.518;2023-06-22T00:48:39;23.20;99.90
3925;DHT22;1977;52.274;10.518;2023-06-22T00:51:07;23.00;99.90
3925;DHT22;1977;52.274;10.518;2023-06-22T00:53:34;23.00;99.90
3925;DHT22;1977;52.274;10.518;2023-06-22T00:56:03;23.20;99.90
3925;DHT22;1977;52.274;10.518;2023-06-22T00:58:31;22.70;99.90
3925;DHT22;1977;52.274;10.518;2023-06-22T01:00:59;22.70;99.90
3925;DHT22;1977;52.274;10.518;2023-06-22T01:03:27;22.70;99.90
3925;DHT22;1977;52.274;10.518;2023-06-22T01:06:00;22.80;99.90
3925;DHT22;1977;52.274;10.518;2023-06-22T01:08:33;22.80;99.90
3925;DHT22;1977;52.274;10.518;2023-06-22T01:11:08;22.80;99.90
3925;DHT22;1977;52.274;10.518;2023-06-22T01:13:41;22.90;99.90
3925;DHT22;1977;52.274;10.518;2023-06-22T01:16:16;22.90;99.90
3925;DHT22;1977;52.274;10.518;2023-06-22T01:18:45;22.90;99.90
3925;DHT22;1977;52.274;10.518;2023-06-22T01:21:15;23.30;99.90
3925;DHT22;1977;52.274;10.518;2023-06-22T01:23:56;23.10;99.90
3925;DHT22;1977;52.274;10.518;2023-06-22T01:26:36;22.90;99.90
3925;DHT22;1977;52.274;10.518;2023-06-22T01:29:06;23.00;99.90
3925;DHT22;1977;52.274;10.518;2023-06-22T01:31:35;22.90;99.90
3925;DHT22;1977;52.274;10.518;2023-06-22T01:34:04;23.00;99.90
3925;DHT22;1977;52.274;10.518;2023-06-22T01:36:32;22.90;99.90
3925;DHT22;1977;52.274;10.518;2023-06-22T01:39:00;23.00;99.90
3925;DHT22;1977;52.274;10.518;2023-06-22T01:41:29;23.00;99.90
3925;DHT22;1977;52.274;10.518;2023-06-22T01:43:56;23.00;99.90
3925;DHT22;1977;52.274;10.518;2023-06-22T01:46:25;22.90;99.90
3925;DHT22;1977;52.274;10.518;2023-06-22T01:48:52;23.20;99.90
3925;DHT22;1977;52.274;10.518;2023-06-22T01:51:19;22.90;99.90
3925;DHT22;1977;52.274;10.518;2023-06-22T01:53:46;22.90;99.90
3925;DHT22;1977;52.274;10.518;2023-06-22T01:56:15;23.00;99.90
3925;DHT22;1977;52.274;10.518;2023-06-22T01:58:47;23.20;99.90
3925;DHT22;1977;52.274;10.518;2023-06-22T02:01:17;22.90;99.90
3925;DHT22;1977;52.274;10.518;2023-06-22T02:03:52;22.90;99.90
3925;DHT22;1977;52.274;10.518;2023-06-22T02:06:23;22.90;99.90
3925;DHT22;1977;52.274;10.518;2023-06-22T02:08:55;23.30;99.90
3925;DHT22;1977;52.274;10.518;2023-06-22T02:11:24;22.80;99.90
3925;DHT22;1977;52.274;10.518;2023-06-22T02:13:53;22.80;99.90
3925;DHT22;1977;52.274;10.518;2023-06-22T02:16:20;22.70;99.90
3925;DHT22;1977;52.274;10.518;2023-06-22T02:18:49;22.60;99.90
3925;DHT22;1977;52.274;10.518;2023-06-22T02:21:17;22.50;99.90
3925;DHT22;1977;52.274;10.518;2023-06-22T02:23:44;22.40;99.90
3925;DHT22;1977;52.274;10.518;2023-06-22T02:26:11;22.40;99.90
3925;DHT22;1977;52.274;10.518;2023-06-22T02:28:38;22.40;99.90
3925;DHT22;1977;52.274;10.518;2023-06-22T02:31:05;22.30;99.90
3925;DHT22;1977;52.274;10.518;2023-06-22T02:33:32;22.30;99.90
3925;DHT22;1977;52.274;10.518;2023-06-22T02:36:00;22.30;99.90
3925;DHT22;1977;52.274;10.518;2023-06-22T02:38:30;22.30;99.90
3925;DHT22;1977;52.274;10.518;2023-06-22T02:41:00;22.40;99.90
3925;DHT22;1977;52.274;10.518;2023-06-22T02:43:26;22.30;99.90
3925;DHT22;1977;52.274;10.518;2023-06-22T02:45:53;22.30;99.90
3925;DHT22;1977;52.274;10.518;2023-06-22T02:48:20;22.30;99.90
3925;DHT22;1977;52.274;10.518;2023-06-22T02:50:47;22.60;99.90
3925;DHT22;1977;52.274;10.518;2023-06-22T02:53:15;22.30;99.90
3925;DHT22;1977;52.274;10.518;2023-06-22T02:55:42;22.30;99.90
3925;DHT22;1977;52.274;10.518;2023-06-22T02:58:08;22.30;99.90
3925;DHT22;1977;52.274;10.518;2023-06-22T03:00:35;22.30;99.90
3925;DHT22;1977;52.274;10.518;2023-06-22T03:03:02;22.30;99.90
3925;DHT22;1977;52.274;10.518;2023-06-22T03:05:28;22.30;99.90
3925;DHT22;1977;52.274;10.518;2023-06-22T03:07:55;22.20;99.90
3925;DHT22;1977;52.274;10.518;2023-06-22T03:10:23;22.30;99.90
3925;DHT22;1977;52.274;10.518;2023-06-22T03:12:50;22.30;99.90
3925;DHT22;1977;52.274;10.518;2023-06-22T03:15:17;22.30;99.90
3925;DHT22;1977;52.274;10.518;2023-06-22T03:17:43;22.30;99.90
3925;DHT22;1977;52.274;10.518;2023-06-22T03:20:11;22.30;99.90
3925;DHT22;1977;52.274;10.518;2023-06-22T03:22:38;22.30;99.90
3925;DHT22;1977;52.274;10.518;2023-06-22T03:25:05;22.30;99.90
3925;DHT22;1977;52.274;10.518;2023-06-22T03:27:37;22.30;99.90
3925;DHT22;1977;52.274;10.518;2023-06-22T03:30:05;22.40;99.90
3925;DHT22;1977;52.274;10.518;2023-06-22T03:32:32;22.40;99.90
3925;DHT22;1977;52.274;10.518;2023-06-22T03:34:59;22.40;99.90
3925;DHT22;1977;52.274;10.518;2023-06-22T03:37:26;22.50;99.90
3925;DHT22;1977;52.274;10.518;2023-06-22T03:39:53;22.30;99.90
3925;DHT22;1977;52.274;10.518;2023-06-22T03:42:20;22.30;99.90
3925;DHT22;1977;52.274;10.518;2023-06-22T03:44:48;22.30;99.90
3925;DHT22;1977;52.274;10.518;2023-06-22T03:47:15;22.30;99.90
3925;DHT22;1977;52.274;10.518;2023-06-22T03:49:41;22.30;99.90
3925;DHT22;1977;52.274;10.518;2023-06-22T03:52:08;22.30;99.90
3925;DHT22;1977;52.274;10.518;2023-06-22T03:54:36;22.40;99.90
3925;DHT22;1977;52.274;10.518;2023-06-22T03:57:04;22.40;99.90
3925;DHT22;1977;52.274;10.518;2023-06-22T03:59:30;22.40;99.90
3925;DHT22;1977;52.274;10.518;2023-06-22T04:01:59;22.50;99.90
3925;DHT22;1977;52.274;10.518;2023-06-22T04:04:26;22.40;99.90
3925;DHT22;1977;52.274;10.518;2023-06-22T04:06:53;22.50;99.90
3925;DHT22;1977;52.274;10.518;2023-06-22T04:09:20;22.60;99.90
3925;DHT22;1977;52.274;10.518;2023-06-22T04:11:47;22.50;99.90
3925;DHT22;1977;52.274;10.518;2023-06-22T04:14:14;22.60;99.90
3925;DHT22;1977;52.274;10.518;2023-06-22T04:16:40;22.80;99.90
3925;DHT22;1977;52.274;10.518;2023-06-22T04:19:08;22.70;99.90
3925;DHT22;1977;52.274;10.518;2023-06-22T04:21:41;22.70;99.90
3925;DHT22;1977;52.274;10.518;2023-06-22T04:24:08;22.70;99.90
3925;DHT22;1977;52.274;10.518;2023-06-22T04:26:35;22.70;99.90
3925;DHT22;1977;52.274;10.518;2023-06-22T04:29:03;22.70;99.90
3925;DHT22;1977;52.274;10.518;2023-06-22T04:31:30;22.70;99.90
3925;DHT22;1977;52.274;10.518;2023-06-22T04:33:57;22.80;99.90
3925;DHT22;1977;52.274;10.518;2023-06-22T04:36:33;22.80;99.90
3925;DHT22;1977;52.274;10.518;2023-06-22T04:39:04;22.80;99.90
3925;DHT22;1977;52.274;10.518;2023-06-22T04:41:30;22.90;99.90
3925;DHT22;1977;52.274;10.518;2023-06-22T04:44:08;22.90;99.90
3925;DHT22;1977;52.274;10.518;2023-06-22T04:46:35;22.90;99.90
3925;DHT22;1977;52.274;10.518;2023-06-22T04:49:04;22.90;99.90
3925;DHT22;1977;52.274;10.518;2023-06-22T04:51:41;23.10;99.90
3925;DHT22;1977;52.274;10.518;2023-06-22T04:54:09;22.90;99.90
3925;DHT22;1977;52.274;10.518;2023-06-22T04:56:36;23.00;99.90
3925;DHT22;1977;52.274;10.518;2023-06-22T04:59:07;23.00;99.90
3925;DHT22;1977;52.274;10.518;2023-06-22T05:01:38;23.00;99.90
3925;DHT22;1977;52.274;10.518;2023-06-22T05:04:05;22.90;99.90
3925;DHT22;1977;52.274;10.518;2023-06-22T05:06:32;23.00;99.90
3925;DHT22;1977;52.274;10.518;2023-06-22T05:09:00;23.10;99.90
3925;DHT22;1977;52.274;10.518;2023-06-22T05:11:28;23.10;99.90
3925;DHT22;1977;52.274;10.518;2023-06-22T05:13:55;23.20;99.90
3925;DHT22;1977;52.274;10.518;2023-06-22T05:16:22;23.20;99.90
3925;DHT22;1977;52.274;10.518;2023-06-22T05:18:51;23.30;99.90
3925;DHT22;1977;52.274;10.518;2023-06-22T05:21:21;23.30;99.90
3925;DHT22;1977;52.274;10.518;2023-06-22T05:23:48;23.20;99.90
3925;DHT22;1977;52.274;10.518;2023-06-22T05:26:16;23.30;99.90
3925;DHT22;1977;52.274;10.518;2023-06-22T05:28:43;23.40;99.90
3925;DHT22;1977;52.274;10.518;2023-06-22T05:31:11;23.50;99.90
3925;DHT22;1977;52.274;10.518;2023-06-22T05:33:38;23.70;99.90
3925;DHT22;1977;52.274;10.518;2023-06-22T05:36:05;23.60;99.90
3925;DHT22;1977;52.274;10.518;2023-06-22T05:38:32;23.70;99.90
3925;DHT22;1977;52.274;10.518;2023-06-22T05:40:59;23.70;99.90
3925;DHT22;1977;52.274;10.518;2023-06-22T05:43:27;23.60;99.90
3925;DHT22;1977;52.274;10.518;2023-06-22T05:45:53;23.70;99.90
3925;DHT22;1977;52.274;10.518;2023-06-22T05:48:20;23.70;99.90
3925;DHT22;1977;52.274;10.518;2023-06-22T05:50:47;23.80;99.90
3925;DHT22;1977;52.274;10.518;2023-06-22T05:53:14;23.90;99.90
3925;DHT22;1977;52.274;10.518;2023-06-22T05:55:41;23.90;99.90
3925;DHT22;1977;52.274;10.518;2023-06-22T05:58:08;24.00;99.90
3925;DHT22;1977;52.274;10.518;2023-06-22T06:00:36;24.40;99.90
3925;DHT22;1977;52.274;10.518;2023-06-22T06:03:03;24.20;99.90
3925;DHT22;1977;52.274;10.518;2023-06-22T06:05:29;24.20;99.90
3925;DHT22;1977;52.274;10.518;2023-06-22T06:07:56;24.20;99.90
3925;DHT22;1977;52.274;10.518;2023-06-22T06:10:23;24.30;99.90
3925;DHT22;1977;52.274;10.518;2023-06-22T06:12:50;24.30;99.90
3925;DHT22;1977;52.274;10.518;2023-06-22T06:15:17;24.50;99.90
3925;DHT22;1977;52.274;10.518;2023-06-22T06:17:50;24.40;99.90
3925;DHT22;1977;52.274;10.518;2023-06-22T06:20:19;24.50;99.90
3925;DHT22;1977;52.274;10.518;2023-06-22T06:22:46;24.50;99.90
3925;DHT22;1977;52.274;10.518;2023-06-22T06:25:13;24.60;99.90
3925;DHT22;1977;52.274;10.518;2023-06-22T06:27:42;24.50;99.90
3925;DHT22;1977;52.274;10.518;2023-06-22T06:30:10;24.60;99.90
3925;DHT22;1977;52.274;10.518;2023-06-22T06:32:37;24.60;99.90
3925;DHT22;1977;52.274;10.518;2023-06-22T06:35:07;24.70;99.90
3925;DHT22;1977;52.274;10.518;2023-06-22T06:37:36;24.70;99.90
3925;DHT22;1977;52.274;10.518;2023-06-22T06:40:03;24.70;99.90
3925;DHT22;1977;52.274;10.518;2023-06-22T06:42:32;24.70;99.90
3925;DHT22;1977;52.274;10.518;2023-06-22T06:44:59;24.70;99.90
3925;DHT22;1977;52.274;10.518;2023-06-22T06:47:25;24.70;99.90
3925;DHT22;1977;52.274;10.518;2023-06-22T06:49:52;24.70;99.90
3925;DHT22;1977;52.274;10.518;2023-06-22T06:52:20;24.70;99.90
3925;DHT22;1977;52.274;10.518;2023-06-22T06:54:47;24.70;99.90
3925;DHT22;1977;52.274;10.518;2023-06-22T06:57:14;24.70;99.90
3925;DHT22;1977;52.274;10.518;2023-06-22T06:59:41;24.80;99.90
3925;DHT22;1977;52.274;10.518;2023-06-22T07:02:08;24.80;99.90
3925;DHT22;1977;52.274;10.518;2023-06-22T07:04:35;24.80;99.90
3925;DHT22;1977;52.274;10.518;2023-06-22T07:07:02;25.00;99.90
3925;DHT22;1977;52.274;10.518;2023-06-22T07:09:30;24.70;99.90
3925;DHT22;1977;52.274;10.518;2023-06-22T07:11:57;24.70;99.90
3925;DHT22;1977;52.274;10.518;2023-06-22T07:14:24;24.70;99.90
3925;DHT22;1977;52.274;10.518;2023-06-22T07:16:50;24.80;99.90
3925;DHT22;1977;52.274;10.518;2023-06-22T07:19:24;24.90;99.90
3925;DHT22;1977;52.274;10.518;2023-06-22T07:21:51;25.10;99.90
3925;DHT22;1977;52.274;10.518;2023-06-22T07:24:19;25.10;99.90
3925;DHT22;1977;52.274;10.518;2023-06-22T07:26:47;25.10;99.90
3925;DHT22;1977;52.274;10.518;2023-06-22T07:29:15;25.20;99.90
3925;DHT22;1977;52.274;10.518;2023-06-22T07:31:42;25.20;99.90
3925;DHT22;1977;52.274;10.518;2023-06-22T07:34:09;25.30;99.90
3925;DHT22;1977;52.274;10.518;2023-06-22T07:36:36;25.30;99.90
3925;DHT22;1977;52.274;10.518;2023-06-22T07:39:02;25.30;99.90
3925;DHT22;1977;52.274;10.518;2023-06-22T07:41:29;25.40;99.90
3925;DHT22;1977;52.274;10.518;2023-06-22T07:43:58;25.50;99.90
3925;DHT22;1977;52.274;10.518;2023-06-22T07:46:25;25.80;99.90
3925;DHT22;1977;52.274;10.518;2023-06-22T07:48:52;26.00;99.90
3925;DHT22;1977;52.274;10.518;2023-06-22T07:51:18;26.30;99.90
3925;DHT22;1977;52.274;10.518;2023-06-22T07:53:45;26.40;99.90
3925;DHT22;1977;52.274;10.518;2023-06-22T07:56:12;26.60;99.90
3925;DHT22;1977;52.274;10.518;2023-06-22T07:58:39;26.60;99.90
3925;DHT22;1977;52.274;10.518;2023-06-22T08:01:07;26.70;99.90
3925;DHT22;1977;52.274;10.518;2023-06-22T08:03:34;26.90;99.90
3925;DHT22;1977;52.274;10.518;2023-06-22T08:06:01;27.10;99.90
3925;DHT22;1977;52.274;10.518;2023-06-22T08:08:27;27.40;99.90
3925;DHT22;1977;52.274;10.518;2023-06-22T08:10:54;27.70;99.90
3925;DHT22;1977;52.274;10.518;2023-06-22T08:13:21;27.70;99.90
3925;DHT22;1977;52.274;10.518;2023-06-22T08:15:48;27.70;99.90
3925;DHT22;1977;52.274;10.518;2023-06-22T08:18:16;27.70;99.90
3925;DHT22;1977;52.274;10.518;2023-06-22T08:20:44;27.70;99.90
3925;DHT22;1977;52.274;10.518;2023-06-22T08:23:10;27.40;99.90
3925;DHT22;1977;52.274;10.518;2023-06-22T08:25:37;27.20;99.90
3925;DHT22;1977;52.274;10.518;2023-06-22T08:28:04;27.10;99.90
3925;DHT22;1977;52.274;10.518;2023-06-22T08:30:31;27.10;99.90
3925;DHT22;1977;52.274;10.518;2023-06-22T08:32:58;27.10;99.90
3925;DHT22;1977;52.274;10.518;2023-06-22T08:35:26;27.00;99.90
3925;DHT22;1977;52.274;10.518;2023-06-22T08:37:53;26.80;99.90
3925;DHT22;1977;52.274;10.518;2023-06-22T08:40:22;26.80;99.90
3925;DHT22;1977;52.274;10.518;2023-06-22T08:42:49;26.80;99.90
3925;DHT22;1977;52.274;10.518;2023-06-22T08:45:16;26.80;99.90
3925;DHT22;1977;52.274;10.518;2023-06-22T08:47:43;26.90;99.90
3925;DHT22;1977;52.274;10.518;2023-06-22T08:50:11;26.70;99.90
3925;DHT22;1977;52.274;10.518;2023-06-22T08:52:40;26.70;99.90
3925;DHT22;1977;52.274;10.518;2023-06-22T08:55:08;26.90;99.90
3925;DHT22;1977;52.274;10.518;2023-06-22T08:57:35;26.80;99.90
3925;DHT22;1977;52.274;10.518;2023-06-22T09:00:03;26.90;99.90
3925;DHT22;1977;52.274;10.518;2023-06-22T09:02:33;27.00;99.90
3925;DHT22;1977;52.274;10.518;2023-06-22T09:05:03;27.10;99.90
3925;DHT22;1977;52.274;10.518;2023-06-22T09:07:30;27.00;99.90
3925;DHT22;1977;52.274;10.518;2023-06-22T09:09:58;27.00;99.90
3925;DHT22;1977;52.274;10.518;2023-06-22T09:12:25;27.10;99.90
3925;DHT22;1977;52.274;10.518;2023-06-22T09:14:52;27.10;99.90
3925;DHT22;1977;52.274;10.518;2023-06-22T09:17:19;27.10;99.90
3925;DHT22;1977;52.274;10.518;2023-06-22T09:19:46;27.10;99.90
3925;DHT22;1977;52.274;10.518;2023-06-22T09:22:14;27.10;99.90
3925;DHT22;1977;52.274;10.518;2023-06-22T09:24:41;27.20;99.90
3925;DHT22;1977;52.274;10.518;2023-06-22T09:27:09;27.30;99.90
3925;DHT22;1977;52.274;10.518;2023-06-22T09:29:36;27.40;99.90
3925;DHT22;1977;52.274;10.518;2023-06-22T09:32:03;27.60;99.90
3925;DHT22;1977;52.274;10.518;2023-06-22T09:34:30;27.90;99.90
3925;DHT22;1977;52.274;10.518;2023-06-22T09:36:56;28.30;99.90
3925;DHT22;1977;52.274;10.518;2023-06-22T09:39:25;28.70;99.90
3925;DHT22;1977;52.274;10.518;2023-06-22T09:41:52;29.00;99.90
3925;DHT22;1977;52.274;10.518;2023-06-22T09:44:20;29.30;99.90
3925;DHT22;1977;52.274;10.518;2023-06-22T09:46:47;29.40;99.90
3925;DHT22;1977;52.274;10.518;2023-06-22T09:49:14;29.30;99.90
3925;DHT22;1977;52.274;10.518;2023-06-22T09:51:40;29.40;99.90
3925;DHT22;1977;52.274;10.518;2023-06-22T09:54:07;29.70;99.90
3925;DHT22;1977;52.274;10.518;2023-06-22T09:56:34;30.40;99.90
3925;DHT22;1977;52.274;10.518;2023-06-22T09:59:03;30.60;99.70
3925;DHT22;1977;52.274;10.518;2023-06-22T10:01:31;30.70;99.30
3925;DHT22;1977;52.274;10.518;2023-06-22T10:03:58;30.60;99.90
3925;DHT22;1977;52.274;10.518;2023-06-22T10:06:24;30.50;99.10
3925;DHT22;1977;52.274;10.518;2023-06-22T10:08:51;30.20;98.70
3925;DHT22;1977;52.274;10.518;2023-06-22T10:11:18;30.00;99.20
3925;DHT22;1977;52.274;10.518;2023-06-22T10:13:45;29.90;98.90
3925;DHT22;1977;52.274;10.518;2023-06-22T10:16:11;29.70;99.20
3925;DHT22;1977;52.274;10.518;2023-06-22T10:18:39;29.60;99.50
3925;DHT22;1977;52.274;10.518;2023-06-22T10:21:06;29.60;99.70
3925;DHT22;1977;52.274;10.518;2023-06-22T10:23:33;29.60;99.50
3925;DHT22;1977;52.274;10.518;2023-06-22T10:26:00;29.50;99.90
3925;DHT22;1977;52.274;10.518;2023-06-22T10:28:26;29.40;99.90
3925;DHT22;1977;52.274;10.518;2023-06-22T10:30:53;29.10;99.80
3925;DHT22;1977;52.274;10.518;2023-06-22T10:33:20;29.00;99.90
3925;DHT22;1977;52.274;10.518;2023-06-22T10:35:48;28.90;99.90
3925;DHT22;1977;52.274;10.518;2023-06-22T10:38:15;28.80;99.90
3925;DHT22;1977;52.274;10.518;2023-06-22T10:40:41;28.60;99.90
3925;DHT22;1977;52.274;10.518;2023-06-22T10:43:08;28.50;99.90
3925;DHT22;1977;52.274;10.518;2023-06-22T10:45:35;28.50;99.90
3925;DHT22;1977;52.274;10.518;2023-06-22T10:48:02;28.60;99.90
3925;DHT22;1977;52.274;10.518;2023-06-22T10:50:29;28.50;99.90
3925;DHT22;1977;52.274;10.518;2023-06-22T10:52:57;28.60;99.90
3925;DHT22;1977;52.274;10.518;2023-06-22T10:55:24;28.70;99.90
3925;DHT22;1977;52.274;10.518;2023-06-22T10:57:51;29.10;99.90
3925;DHT22;1977;52.274;10.518;2023-06-22T11:00:18;29.10;99.90
3925;DHT22;1977;52.274;10.518;2023-06-22T11:02:45;29.30;99.90
3925;DHT22;1977;52.274;10.518;2023-06-22T11:05:11;29.40;99.90
3925;DHT22;1977;52.274;10.518;2023-06-22T11:07:41;29.50;99.90
3925;DHT22;1977;52.274;10.518;2023-06-22T11:10:09;29.30;99.00
3925;DHT22;1977;52.274;10.518;2023-06-22T11:12:36;29.30;99.00
3925;DHT22;1977;52.274;10.518;2023-06-22T11:15:04;29.40;99.20
3925;DHT22;1977;52.274;10.518;2023-06-22T11:17:31;29.40;99.00
3925;DHT22;1977;52.274;10.518;2023-06-22T11:19:57;29.40;98.40
3925;DHT22;1977;52.274;10.518;2023-06-22T11:22:25;29.40;98.40
3925;DHT22;1977;52.274;10.518;2023-06-22T11:24:52;29.50;98.40
3925;DHT22;1977;52.274;10.518;2023-06-22T11:27:20;29.60;98.60
3925;DHT22;1977;52.274;10.518;2023-06-22T11:29:47;29.80;98.70
3925;DHT22;1977;52.274;10.518;2023-06-22T11:32:15;29.80;98.60
3925;DHT22;1977;52.274;10.518;2023-06-22T11:34:42;29.90;98.60
3925;DHT22;1977;52.274;10.518;2023-06-22T11:37:08;29.80;98.60
3925;DHT22;1977;52.274;10.518;2023-06-22T11:39:35;30.10;98.30
3925;DHT22;1977;52.274;10.518;2023-06-22T11:42:02;29.80;97.90
3925;DHT22;1977;52.274;10.518;2023-06-22T11:44:30;29.80;97.90
3925;DHT22;1977;52.274;10.518;2023-06-22T11:46:57;29.70;98.00
3925;DHT22;1977;52.274;10.518;2023-06-22T11:49:26;29.70;97.10
3925;DHT22;1977;52.274;10.518;2023-06-22T11:51:53;29.70;97.50
3925;DHT22;1977;52.274;10.518;2023-06-22T11:54:19;29.70;96.80
3925;DHT22;1977;52.274;10.518;2023-06-22T11:56:46;29.60;96.80
3925;DHT22;1977;52.274;10.518;2023-06-22T11:59:13;29.60;96.80
3925;DHT22;1977;52.274;10.518;2023-06-22T12:01:41;29.50;96.80
3925;DHT22;1977;52.274;10.518;2023-06-22T12:04:08;29.50;96.80
3925;DHT22;1977;52.274;10.518;2023-06-22T12:06:38;29.50;96.50
3925;DHT22;1977;52.274;10.518;2023-06-22T12:09:07;29.50;97.00
3925;DHT22;1977;52.274;10.518;2023-06-22T12:11:34;29.50;97.40
3925;DHT22;1977;52.274;10.518;2023-06-22T12:14:01;29.50;96.70
3925;DHT22;1977;52.274;10.518;2023-06-22T12:16:27;29.60;96.80
3925;DHT22;1977;52.274;10.518;2023-06-22T12:18:56;29.60;97.20
3925;DHT22;1977;52.274;10.518;2023-06-22T12:21:22;29.60;97.30
3925;DHT22;1977;52.274;10.518;2023-06-22T12:23:49;29.60;96.50
3925;DHT22;1977;52.274;10.518;2023-06-22T12:26:16;29.60;96.60
3925;DHT22;1977;52.274;10.518;2023-06-22T12:28:43;29.60;96.70
3925;DHT22;1977;52.274;10.518;2023-06-22T12:31:09;29.60;96.50
3925;DHT22;1977;52.274;10.518;2023-06-22T12:33:36;29.60;95.90
3925;DHT22;1977;52.274;10.518;2023-06-22T12:36:05;29.60;96.00
3925;DHT22;1977;52.274;10.518;2023-06-22T12:38:31;29.60;95.90
3925;DHT22;1977;52.274;10.518;2023-06-22T12:40:58;29.50;95.70
3925;DHT22;1977;52.274;10.518;2023-06-22T12:43:25;29.50;95.80
3925;DHT22;1977;52.274;10.518;2023-06-22T12:45:52;29.30;95.60
3925;DHT22;1977;52.274;10.518;2023-06-22T12:48:19;29.50;96.10
3925;DHT22;1977;52.274;10.518;2023-06-22T12:50:45;29.40;96.40
3925;DHT22;1977;52.274;10.518;2023-06-22T12:53:14;29.40;96.50
3925;DHT22;1977;52.274;10.518;2023-06-22T12:55:41;29.40;96.40
3925;DHT22;1977;52.274;10.518;2023-06-22T12:58:08;29.30;96.20
3925;DHT22;1977;52.274;10.518;2023-06-22T13:00:34;29.30;96.30
3925;DHT22;1977;52.274;10.518;2023-06-22T13:03:01;29.40;96.40
3925;DHT22;1977;52.274;10.518;2023-06-22T13:05:28;29.50;96.00
3925;DHT22;1977;52.274;10.518;2023-06-22T13:07:56;29.50;95.90
3925;DHT22;1977;52.274;10.518;2023-06-22T13:10:24;29.40;96.10
3925;DHT22;1977;52.274;10.518;2023-06-22T13:12:50;29.60;96.20
3925;DHT22;1977;52.274;10.518;2023-06-22T13:15:17;29.60;95.80
3925;DHT22;1977;52.274;10.518;2023-06-22T13:17:44;29.60;95.90
3925;DHT22;1977;52.274;10.518;2023-06-22T13:20:11;29.60;96.10
3925;DHT22;1977;52.274;10.518;2023-06-22T13:22:37;29.70;96.20
3925;DHT22;1977;52.274;10.518;2023-06-22T13:25:08;29.60;96.20
3925;DHT22;1977;52.274;10.518;2023-06-22T13:27:38;29.50;96.30
3925;DHT22;1977;52.274;10.518;2023-06-22T13:30:06;29.50;96.30
3925;DHT22;1977;52.274;10.518;2023-06-22T13:32:33;29.40;96.50
3925;DHT22;1977;52.274;10.518;2023-06-22T13:35:00;29.40;96.50
3925;DHT22;1977;52.274;10.518;2023-06-22T13:37:27;29.40;96.60
3925;DHT22;1977;52.274;10.518;2023-06-22T13:39:53;29.40;96.30
3925;DHT22;1977;52.274;10.518;2023-06-22T13:42:21;29.50;96.60
3925;DHT22;1977;52.274;10.518;2023-06-22T13:44:49;29.40;96.40
3925;DHT22;1977;52.274;10.518;2023-06-22T13:47:16;29.50;96.20
3925;DHT22;1977;52.274;10.518;2023-06-22T13:49:43;29.60;96.40
3925;DHT22;1977;52.274;10.518;2023-06-22T13:52:09;29.70;96.00
3925;DHT22;1977;52.274;10.518;2023-06-22T13:54:38;29.50;96.20
3925;DHT22;1977;52.274;10.518;2023-06-22T13:57:05;29.50;96.60
3925;DHT22;1977;52.274;10.518;2023-06-22T13:59:32;29.40;96.30
3925;DHT22;1977;52.274;10.518;2023-06-22T14:02:00;29.40;96.20
3925;DHT22;1977;52.274;10.518;2023-06-22T14:04:27;29.40;96.40
3925;DHT22;1977;52.274;10.518;2023-06-22T14:06:54;29.40;96.60
3925;DHT22;1977;52.274;10.518;2023-06-22T14:09:21;29.40;96.50
3925;DHT22;1977;52.274;10.518;2023-06-22T14:11:48;29.30;96.00
3925;DHT22;1977;52.274;10.518;2023-06-22T14:14:15;29.30;96.20
3925;DHT22;1977;52.274;10.518;2023-06-22T14:16:41;29.30;96.10
3925;DHT22;1977;52.274;10.518;2023-06-22T14:19:09;29.20;96.10
3925;DHT22;1977;52.274;10.518;2023-06-22T14:21:36;29.20;96.00
3925;DHT22;1977;52.274;10.518;2023-06-22T14:24:03;29.20;96.40
3925;DHT22;1977;52.274;10.518;2023-06-22T14:26:30;29.30;96.30
3925;DHT22;1977;52.274;10.518;2023-06-22T14:28:57;29.30;96.20
3925;DHT22;1977;52.274;10.518;2023-06-22T14:31:23;29.30;96.20
3925;DHT22;1977;52.274;10.518;2023-06-22T14:33:50;29.30;96.20
3925;DHT22;1977;52.274;10.518;2023-06-22T14:36:18;29.20;96.30
3925;DHT22;1977;52.274;10.518;2023-06-22T14:38:45;29.10;96.40
3925;DHT22;1977;52.274;10.518;2023-06-22T14:41:12;29.20;96.50
3925;DHT22;1977;52.274;10.518;2023-06-22T14:43:44;29.30;96.80
3925;DHT22;1977;52.274;10.518;2023-06-22T14:46:11;29.30;97.20
3925;DHT22;1977;52.274;10.518;2023-06-22T14:48:38;29.30;97.10
3925;DHT22;1977;52.274;10.518;2023-06-22T14:51:05;29.30;97.40
3925;DHT22;1977;52.274;10.518;2023-06-22T14:53:33;29.20;97.20
3925;DHT22;1977;52.274;10.518;2023-06-22T14:55:59;29.10;97.50
3925;DHT22;1977;52.274;10.518;2023-06-22T14:58:27;29.10;97.40
3925;DHT22;1977;52.274;10.518;2023-06-22T15:00:55;29.20;97.40
3925;DHT22;1977;52.274;10.518;2023-06-22T15:03:22;29.20;97.20
3925;DHT22;1977;52.274;10.518;2023-06-22T15:05:53;29.20;97.20
3925;DHT22;1977;52.274;10.518;2023-06-22T15:08:20;29.20;97.10
3925;DHT22;1977;52.274;10.518;2023-06-22T15:10:48;29.20;97.10
3925;DHT22;1977;52.274;10.518;2023-06-22T15:13:15;29.20;97.10
3925;DHT22;1977;52.274;10.518;2023-06-22T15:15:42;29.20;97.60
3925;DHT22;1977;52.274;10.518;2023-06-22T15:18:09;29.20;98.00
3925;DHT22;1977;52.274;10.518;2023-06-22T15:20:36;29.20;98.40
3925;DHT22;1977;52.274;10.518;2023-06-22T15:23:03;29.20;98.60
3925;DHT22;1977;52.274;10.518;2023-06-22T15:25:29;29.20;98.90
3925;DHT22;1977;52.274;10.518;2023-06-22T15:27:58;29.20;98.80
3925;DHT22;1977;52.274;10.518;2023-06-22T15:30:25;29.20;98.90
3925;DHT22;1977;52.274;10.518;2023-06-22T15:32:51;29.20;99.40
3925;DHT22;1977;52.274;10.518;2023-06-22T15:35:18;29.10;98.80
3925;DHT22;1977;52.274;10.518;2023-06-22T15:37:45;29.00;98.60
3925;DHT22;1977;52.274;10.518;2023-06-22T15:40:12;29.00;98.50
3925;DHT22;1977;52.274;10.518;2023-06-22T15:42:39;28.90;98.60
3925;DHT22;1977;52.274;10.518;2023-06-22T15:45:08;28.80;98.60
3925;DHT22;1977;52.274;10.518;2023-06-22T15:47:35;28.80;98.40